Time;durP1;ratioP1;P1;durP2;ratioP2;P2;SDS_P1;SDS_P2;PMS_P1;PMS_P2;Temp;Humidity;BMP_temperature;BMP_pressure;BME280_temperature;BME280_humidity;BME280_pressure;Samples;Min_cycle;Max_cycle;Signal;HPM_P1;HPM_P2
2024/03/23 00:02:19;;;;;;;73.30;52.30;;;;;;;9.72;100.00;98347.23;109481;1253;59780;-75
2024/03/23 00:04:46;;;;;;;81.70;55.30;;;;;;;9.72;100.00;98352.19;109270;1252;59830;-73
2024/03/23 00:07:12;;;;;;;73.70;52.60;;;;;;;9.68;100.00;98347.70;109495;1252;59749;-73
2024/03/23 00:09:38;;;;;;;83.90;54.60;;;;;;;9.66;100.00;98344.63;109486;1253;59977;-73
2024/03/23 00:12:05;;;;;;;74.40;53.00;;;;;;;9.64;100.00;98341.71;109559;1253;59801;-73
2024/03/23 00:14:31;;;;;;;77.50;53.80;;;;;;;9.63;100.00;98336.67;109562;1253;60321;-74
2024/03/23 00:16:57;;;;;;;77.10;54.60;;;;;;;9.62;100.00;98335.86;109522;1253;59817;-74
2024/03/23 00:19:23;;;;;;;77.30;54.50;;;;;;;9.62;100.00;98336.58;109492;1252;59876;-73
2024/03/23 00:21:50;;;;;;;79.90;55.50;;;;;;;9.61;100.00;98335.27;109515;1251;59838;-74
2024/03/23 00:24:16;;;;;;;77.90;54.80;;;;;;;9.58;100.00;98326.20;109550;1253;59769;-73
2024/03/23 00:26:42;;;;;;;78.90;54.80;;;;;;;9.55;100.00;98321.66;109550;1253;60071;-74
2024/03/23 00:29:09;;;;;;;76.40;53.60;;;;;;;9.54;100.00;98316.05;109473;1253;59867;-73
2024/03/23 00:31:35;;;;;;;75.90;54.40;;;;;;;9.54;100.00;98311.08;109160;1253;60221;-73
2024/03/23 00:34:01;;;;;;;75.30;53.20;;;;;;;9.54;100.00;98305.64;109530;1253;59846;-74
2024/03/23 00:36:28;;;;;;;74.30;52.10;;;;;;;9.52;100.00;98304.89;109496;1252;59853;-73
2024/03/23 00:38:54;;;;;;;76.30;52.60;;;;;;;9.48;100.00;98302.65;109203;1252;59884;-72
2024/03/23 00:41:20;;;;;;;74.40;52.80;;;;;;;9.46;100.00;98299.30;109488;1253;59880;-73
2024/03/23 00:43:47;;;;;;;75.80;54.00;;;;;;;9.44;100.00;98293.92;109522;1253;59660;-74
2024/03/23 00:46:13;;;;;;;77.30;52.70;;;;;;;9.42;100.00;98293.33;109237;1253;59828;-73
2024/03/23 00:48:39;;;;;;;75.80;51.60;;;;;;;9.41;100.00;98289.02;109472;1254;59732;-74
2024/03/23 00:51:06;;;;;;;78.20;55.50;;;;;;;9.38;100.00;98291.89;109519;1253;59802;-73
2024/03/23 00:53:33;;;;;;;77.50;55.00;;;;;;;9.35;100.00;98291.91;109488;1253;60722;-74
2024/03/23 00:55:59;;;;;;;75.50;54.40;;;;;;;9.33;100.00;98291.73;109461;1253;59893;-73
2024/03/23 00:58:26;;;;;;;73.30;52.70;;;;;;;9.29;100.00;98292.70;109478;1254;59813;-73
2024/03/23 01:00:52;;;;;;;73.20;53.80;;;;;;;9.27;100.00;98288.30;109522;1253;59907;-73
2024/03/23 01:03:18;;;;;;;72.80;53.10;;;;;;;9.27;100.00;98287.95;109485;1253;59809;-74
2024/03/23 01:05:45;;;;;;;80.90;54.20;;;;;;;9.26;100.00;98287.95;109482;1252;59893;-74
2024/03/23 01:08:11;;;;;;;81.10;57.70;;;;;;;9.27;100.00;98289.32;109467;1253;60258;-73
2024/03/23 01:10:37;;;;;;;79.20;53.30;;;;;;;9.28;100.00;98283.98;109529;1253;59880;-74
2024/03/23 01:13:04;;;;;;;78.50;53.70;;;;;;;9.27;100.00;98284.02;109507;1253;59840;-73
2024/03/23 01:15:30;;;;;;;77.10;53.80;;;;;;;9.25;100.00;98281.34;109553;1253;59843;-74
2024/03/23 01:17:57;;;;;;;77.30;54.40;;;;;;;9.22;100.00;98280.96;109506;1252;59900;-73
2024/03/23 01:20:23;;;;;;;75.30;53.70;;;;;;;9.21;100.00;98280.73;109513;1253;59815;-74
2024/03/23 01:22:49;;;;;;;76.40;54.80;;;;;;;9.18;100.00;98280.97;109510;1253;59729;-74
2024/03/23 01:25:16;;;;;;;73.70;54.30;;;;;;;9.12;100.00;98279.42;109543;1253;59722;-74
2024/03/23 01:27:42;;;;;;;77.90;55.60;;;;;;;9.10;100.00;98277.45;109223;1254;60048;-73
2024/03/23 01:30:09;;;;;;;75.20;56.10;;;;;;;9.09;100.00;98271.27;109477;1253;59888;-73
2024/03/23 01:32:35;;;;;;;76.60;53.00;;;;;;;9.09;100.00;98266.88;109477;1252;59776;-74
2024/03/23 01:35:01;;;;;;;73.60;52.20;;;;;;;9.09;100.00;98264.92;109541;1254;60003;-73
2024/03/23 01:37:28;;;;;;;79.60;54.40;;;;;;;9.08;100.00;98259.54;109469;1252;60043;-74
2024/03/23 01:39:54;;;;;;;70.60;52.00;;;;;;;9.03;100.00;98253.66;109493;1253;59828;-73
2024/03/23 01:42:20;;;;;;;72.40;50.90;;;;;;;8.96;100.00;98249.89;109496;1253;59758;-74
2024/03/23 01:44:47;;;;;;;73.70;53.00;;;;;;;8.90;100.00;98244.33;109484;1253;59861;-73
2024/03/23 01:47:13;;;;;;;82.20;58.10;;;;;;;8.90;100.00;98241.87;109563;1253;59854;-74
2024/03/23 01:49:39;;;;;;;72.30;54.60;;;;;;;8.90;100.00;98243.60;109520;1253;59819;-74
2024/03/23 01:52:06;;;;;;;66.60;52.30;;;;;;;8.91;100.00;98244.45;109548;1253;59798;-74
2024/03/23 01:54:33;;;;;;;78.90;58.00;;;;;;;8.91;100.00;98239.48;109501;1254;59767;-74
2024/03/23 01:56:59;;;;;;;77.20;59.80;;;;;;;8.91;100.00;98234.88;109494;1251;59761;-73
2024/03/23 01:59:26;;;;;;;76.50;60.10;;;;;;;8.93;100.00;98229.42;109358;1253;59899;-74
2024/03/23 02:01:52;;;;;;;75.80;59.00;;;;;;;8.94;100.00;98223.63;109517;1254;59837;-73
2024/03/23 02:04:18;;;;;;;71.90;56.20;;;;;;;8.95;100.00;98220.05;109489;1254;59810;-73
2024/03/23 02:06:45;;;;;;;70.70;52.00;;;;;;;8.94;100.00;98220.47;109464;1254;60152;-73
2024/03/23 02:09:11;;;;;;;75.80;57.80;;;;;;;8.91;100.00;98217.14;109549;1255;59866;-73
2024/03/23 02:11:38;;;;;;;68.60;55.70;;;;;;;8.92;100.00;98217.64;109522;1253;59842;-74
2024/03/23 02:14:04;;;;;;;69.30;54.80;;;;;;;8.92;100.00;98217.80;109519;1254;59864;-74
2024/03/23 02:16:30;;;;;;;70.40;53.30;;;;;;;8.91;100.00;98215.90;109484;1256;59894;-73
2024/03/23 02:18:57;;;;;;;70.70;54.40;;;;;;;8.90;100.00;98218.63;109485;1254;59815;-73
2024/03/23 02:21:23;;;;;;;75.60;56.70;;;;;;;8.89;100.00;98226.01;109495;1254;59840;-73
2024/03/23 02:23:49;;;;;;;75.70;58.10;;;;;;;8.88;100.00;98223.97;109503;1252;59770;-73
2024/03/23 02:26:16;;;;;;;76.20;60.90;;;;;;;8.87;100.00;98221.86;109515;1253;60188;-73
2024/03/23 02:28:43;;;;;;;75.40;59.80;;;;;;;8.88;100.00;98213.99;109521;1254;60082;-74
2024/03/23 02:31:10;;;;;;;72.50;58.00;;;;;;;8.91;100.00;98209.40;109469;1253;59798;-73
2024/03/23 02:33:38;;;;;;;72.20;57.70;;;;;;;8.91;100.00;98204.02;109375;1253;59861;-73
2024/03/23 02:36:04;;;;;;;79.40;59.40;;;;;;;8.93;100.00;98202.16;109489;1252;66561;-73
2024/03/23 02:38:30;;;;;;;76.40;57.50;;;;;;;8.93;100.00;98200.38;109488;1253;59891;-73
2024/03/23 02:41:04;;;;;;;73.40;58.40;;;;;;;8.92;100.00;98198.10;109472;1253;59816;-73
2024/03/23 02:43:31;;;;;;;74.10;57.60;;;;;;;8.91;100.00;98201.36;109505;1253;60078;-74
2024/03/23 02:45:57;;;;;;;73.80;57.00;;;;;;;8.91;100.00;98200.17;109508;1254;59748;-73
2024/03/23 02:48:24;;;;;;;69.70;55.30;;;;;;;8.89;100.00;98197.64;109483;1254;60108;-73
2024/03/23 02:50:50;;;;;;;68.00;54.00;;;;;;;8.87;100.00;98192.27;109507;1253;59777;-73
2024/03/23 02:53:17;;;;;;;74.60;55.50;;;;;;;8.86;100.00;98187.08;109483;1253;63969;-73
2024/03/23 02:55:43;;;;;;;68.20;54.50;;;;;;;8.83;100.00;98183.05;109458;1252;59736;-73
2024/03/23 02:58:09;;;;;;;69.60;53.50;;;;;;;8.81;100.00;98180.86;109476;1253;59812;-74
2024/03/23 03:00:36;;;;;;;72.50;57.80;;;;;;;8.79;100.00;98173.73;109466;1253;59916;-73
2024/03/23 03:03:03;;;;;;;67.60;52.20;;;;;;;8.79;100.00;98175.83;109523;1253;60004;-72
2024/03/23 03:05:29;;;;;;;74.60;58.50;;;;;;;8.77;100.00;98175.10;109455;1252;64205;-73
2024/03/23 03:07:56;;;;;;;66.10;52.30;;;;;;;8.79;100.00;98169.50;109471;1253;59761;-74
2024/03/23 03:10:22;;;;;;;75.60;59.20;;;;;;;8.80;100.00;98163.05;109265;1252;60064;-73
2024/03/23 03:12:48;;;;;;;71.50;56.50;;;;;;;8.80;100.00;98160.73;109481;1254;59790;-74
2024/03/23 03:15:15;;;;;;;68.60;54.80;;;;;;;8.81;100.00;98159.41;109512;1253;59800;-73
2024/03/23 03:17:41;;;;;;;71.10;53.40;;;;;;;8.81;100.00;98153.77;109507;1253;59841;-74
2024/03/23 03:20:13;;;;;;;68.40;52.90;;;;;;;8.81;100.00;98152.02;109407;1253;59771;-74
2024/03/23 03:22:39;;;;;;;69.40;52.80;;;;;;;8.78;100.00;98150.41;109287;1253;59826;-73
2024/03/23 03:25:07;;;;;;;62.80;50.80;;;;;;;8.77;100.00;98146.48;109501;1253;66470;-74
2024/03/23 03:27:34;;;;;;;67.30;53.90;;;;;;;8.75;100.00;98140.04;109450;1252;61337;-74
2024/03/23 03:30:05;;;;;;;65.50;50.80;;;;;;;8.73;100.00;98136.77;109450;1254;63338;-74
2024/03/23 03:32:33;;;;;;;71.30;53.20;;;;;;;8.73;100.00;98136.61;109465;1253;59728;-74
2024/03/23 03:34:59;;;;;;;68.00;55.40;;;;;;;8.73;100.00;98132.58;109449;1254;59655;-73
2024/03/23 03:37:25;;;;;;;64.80;52.20;;;;;;;8.73;100.00;98130.45;109425;1253;60091;-74
2024/03/23 03:39:52;;;;;;;66.70;52.40;;;;;;;8.73;100.00;98128.84;109469;1254;59803;-74
2024/03/23 03:42:18;;;;;;;67.40;53.20;;;;;;;8.73;100.00;98123.67;109506;1253;59886;-73
2024/03/23 03:44:44;;;;;;;70.80;53.70;;;;;;;8.74;100.00;98122.39;109438;1253;59825;-73
2024/03/23 03:47:10;;;;;;;67.90;53.60;;;;;;;8.75;100.00;98123.05;109502;1253;59814;-73
2024/03/23 03:49:37;;;;;;;63.20;50.80;;;;;;;8.74;100.00;98114.09;109509;1254;59812;-74
2024/03/23 03:52:04;;;;;;;63.50;51.00;;;;;;;8.74;100.00;98120.80;109489;1254;59761;-73
2024/03/23 03:54:30;;;;;;;60.30;49.70;;;;;;;8.72;100.00;98123.79;109465;1253;59859;-73
2024/03/23 03:56:56;;;;;;;62.60;50.10;;;;;;;8.71;100.00;98125.67;109476;1252;59761;-73
2024/03/23 03:59:23;;;;;;;63.50;50.30;;;;;;;8.69;100.00;98121.00;109500;1253;59829;-73
2024/03/23 04:01:49;;;;;;;67.10;56.10;;;;;;;8.67;100.00;98123.45;109480;1253;59765;-73
2024/03/23 04:04:16;;;;;;;71.80;57.50;;;;;;;8.67;100.00;98125.97;109529;1253;59999;-73
2024/03/23 04:06:43;;;;;;;66.20;56.20;;;;;;;8.68;100.00;98131.30;109456;1253;59922;-73
2024/03/23 04:09:10;;;;;;;66.70;55.20;;;;;;;8.69;100.00;98127.52;109442;1253;59835;-75
2024/03/23 04:11:36;;;;;;;70.20;57.20;;;;;;;8.70;100.00;98119.70;109267;1252;59921;-74
2024/03/23 04:14:02;;;;;;;68.80;55.30;;;;;;;8.73;100.00;98115.20;109521;1252;59861;-74
2024/03/23 04:16:34;;;;;;;70.80;58.20;;;;;;;8.75;100.00;98118.60;109480;1253;59760;-74
2024/03/23 04:19:01;;;;;;;73.70;55.30;;;;;;;8.76;100.00;98117.12;109481;1253;64079;-74
2024/03/23 04:21:27;;;;;;;66.90;57.80;;;;;;;8.75;100.00;98116.83;109453;1253;59838;-75
2024/03/23 04:23:53;;;;;;;68.30;53.80;;;;;;;8.73;100.00;98114.66;109478;1253;59843;-74
2024/03/23 04:26:20;;;;;;;72.10;58.40;;;;;;;8.69;100.00;98111.77;109298;1254;59870;-74
2024/03/23 04:28:46;;;;;;;65.40;51.10;;;;;;;8.67;100.00;98106.07;109480;1253;60048;-74
2024/03/23 04:31:13;;;;;;;65.20;53.70;;;;;;;8.68;100.00;98105.30;109422;1253;60569;-73
2024/03/23 04:33:39;;;;;;;65.90;49.50;;;;;;;8.69;100.00;98095.68;109475;1253;59822;-73
2024/03/23 04:36:07;;;;;;;62.40;48.10;;;;;;;8.69;100.00;98095.52;109492;1254;59699;-74
2024/03/23 04:38:33;;;;;;;64.00;50.60;;;;;;;8.68;100.00;98091.70;109267;1254;66858;-73
2024/03/23 04:41:00;;;;;;;66.80;52.10;;;;;;;8.68;100.00;98086.39;109475;1253;60198;-74
2024/03/23 04:43:26;;;;;;;65.40;52.00;;;;;;;8.68;100.00;98082.64;109469;1253;59739;-74
2024/03/23 04:45:52;;;;;;;59.40;49.50;;;;;;;8.69;100.00;98080.23;109459;1252;59822;-74
2024/03/23 04:48:22;;;;;;;61.80;49.60;;;;;;;8.70;100.00;98075.36;109473;1251;59824;-74
2024/03/23 04:50:49;;;;;;;62.90;49.60;;;;;;;8.70;100.00;98076.79;109164;1251;65660;-74
2024/03/23 04:53:16;;;;;;;61.50;49.10;;;;;;;8.69;100.00;98075.45;109503;1251;60057;-74
2024/03/23 04:55:43;;;;;;;65.00;51.80;;;;;;;8.68;100.00;98067.01;109459;1251;64129;-74
2024/03/23 04:58:10;;;;;;;64.40;49.70;;;;;;;8.69;100.00;98059.73;109471;1251;59750;-73
2024/03/23 05:00:36;;;;;;;72.80;54.40;;;;;;;8.70;100.00;98056.43;109527;1251;59805;-73
2024/03/23 05:03:04;;;;;;;65.30;52.00;;;;;;;8.72;100.00;98049.37;109516;1251;59806;-73
2024/03/23 05:05:30;;;;;;;67.50;53.00;;;;;;;8.74;100.00;98039.86;109529;1251;60348;-73
2024/03/23 05:07:56;;;;;;;65.50;53.70;;;;;;;8.75;100.00;98034.45;109485;1251;60045;-73
2024/03/23 05:10:23;;;;;;;72.10;56.60;;;;;;;8.75;100.00;98036.44;109494;1251;59837;-73
2024/03/23 05:12:49;;;;;;;82.40;70.60;;;;;;;8.74;100.00;98035.98;109546;1251;59774;-73
2024/03/23 05:15:16;;;;;;;77.10;66.20;;;;;;;8.72;100.00;98037.91;109519;1251;59790;-73
2024/03/23 05:17:42;;;;;;;75.90;60.90;;;;;;;8.70;100.00;98042.25;109529;1250;59865;-73
2024/03/23 05:20:09;;;;;;;76.10;61.30;;;;;;;8.69;100.00;98043.26;109536;1251;59817;-74
2024/03/23 05:22:36;;;;;;;80.50;65.70;;;;;;;8.66;100.00;98041.92;109262;1251;59854;-74
2024/03/23 05:25:04;;;;;;;76.30;62.90;;;;;;;8.63;100.00;98043.50;109497;1251;59853;-73
2024/03/23 05:27:32;;;;;;;76.20;61.90;;;;;;;8.63;100.00;98039.46;109503;1251;66903;-74
2024/03/23 05:29:59;;;;;;;72.20;60.50;;;;;;;8.64;100.00;98041.38;109491;1251;59936;-73
2024/03/23 05:32:25;;;;;;;72.10;60.80;;;;;;;8.65;100.00;98041.44;109557;1251;59779;-74
2024/03/23 05:34:55;;;;;;;79.80;65.40;;;;;;;8.66;100.00;98045.07;109488;1251;59753;-73
2024/03/23 05:37:25;;;;;;;74.60;62.60;;;;;;;8.68;100.00;98043.00;109542;1251;59766;-74
2024/03/23 05:39:51;;;;;;;70.40;59.50;;;;;;;8.70;100.00;98046.49;109507;1250;67065;-73
2024/03/23 05:42:18;;;;;;;68.80;59.10;;;;;;;8.72;100.00;98047.63;109504;1251;59703;-73
2024/03/23 05:44:46;;;;;;;69.90;57.90;;;;;;;8.75;100.00;98041.91;109483;1251;63772;-74
2024/03/23 05:47:14;;;;;;;70.60;59.80;;;;;;;8.79;100.00;98039.84;109442;1251;59837;-72
2024/03/23 05:49:41;;;;;;;76.00;61.20;;;;;;;8.84;100.00;98034.92;109475;1251;59809;-73
2024/03/23 05:52:09;;;;;;;72.40;59.80;;;;;;;8.87;100.00;98029.52;109506;1251;66801;-73
2024/03/23 05:54:35;;;;;;;71.30;58.90;;;;;;;8.91;100.00;98027.65;109556;1251;60293;-73
2024/03/23 05:57:03;;;;;;;80.40;64.50;;;;;;;8.94;100.00;98023.84;109520;1251;63008;-73
2024/03/23 05:59:29;;;;;;;74.80;60.60;;;;;;;8.97;100.00;98025.73;109472;1251;59830;-74
2024/03/23 06:01:55;;;;;;;75.20;65.40;;;;;;;8.99;100.00;98021.52;109470;1251;59807;-73
2024/03/23 06:04:22;;;;;;;76.00;66.50;;;;;;;9.02;100.00;98020.23;109526;1251;59736;-72
2024/03/23 06:06:49;;;;;;;78.90;66.50;;;;;;;9.06;100.00;98018.14;109313;1251;59963;-73
2024/03/23 06:09:15;;;;;;;75.90;62.80;;;;;;;9.12;100.00;98018.23;109473;1251;59976;-73
2024/03/23 06:11:41;;;;;;;75.10;65.90;;;;;;;9.17;100.00;98013.20;109506;1251;60059;-74
2024/03/23 06:14:08;;;;;;;78.90;67.70;;;;;;;9.22;100.00;98019.78;109517;1251;60032;-73
2024/03/23 06:16:34;;;;;;;81.10;68.60;;;;;;;9.25;100.00;98027.17;109529;1251;59855;-73
2024/03/23 06:19:03;;;;;;;75.60;66.70;;;;;;;9.27;100.00;98031.42;109530;1251;59949;-74
2024/03/23 06:21:29;;;;;;;77.40;65.80;;;;;;;9.32;100.00;98025.71;109371;1251;64293;-73
2024/03/23 06:23:56;;;;;;;75.40;67.00;;;;;;;9.40;100.00;98026.31;109490;1251;59750;-73
2024/03/23 06:26:22;;;;;;;74.70;63.80;;;;;;;9.48;100.00;98017.73;109390;1253;59814;-74
2024/03/23 06:28:49;;;;;;;74.40;64.40;;;;;;;9.54;100.00;98008.63;109547;1251;59840;-73
2024/03/23 06:31:15;;;;;;;77.80;65.90;;;;;;;9.58;100.00;98010.02;109393;1251;60250;-74
2024/03/23 06:33:42;;;;;;;69.60;61.10;;;;;;;9.62;100.00;98007.21;109477;1251;60141;-74
2024/03/23 06:36:10;;;;;;;77.00;63.00;;;;;;;9.65;100.00;98005.38;109514;1250;60022;-73
2024/03/23 06:38:38;;;;;;;72.80;61.60;;;;;;;9.70;100.00;98003.77;109515;1253;59784;-74
2024/03/23 06:41:05;;;;;;;71.30;62.40;;;;;;;9.75;100.00;98008.02;109496;1251;67031;-73
2024/03/23 06:43:31;;;;;;;69.70;61.40;;;;;;;9.81;100.00;98008.39;109492;1251;59858;-74
2024/03/23 06:45:58;;;;;;;66.50;58.70;;;;;;;9.91;100.00;98008.83;109502;1251;62463;-74
2024/03/23 06:48:24;;;;;;;73.10;61.20;;;;;;;9.99;100.00;97997.02;109450;1251;59790;-74
2024/03/23 06:50:57;;;;;;;71.20;61.10;;;;;;;10.06;100.00;97989.57;109510;1251;59834;-75
2024/03/23 06:53:23;;;;;;;73.10;62.20;;;;;;;10.10;100.00;97993.28;109511;1250;66587;-73
2024/03/23 06:55:52;;;;;;;71.60;61.40;;;;;;;10.14;100.00;97994.77;109364;1250;59832;-77
2024/03/23 06:58:23;;;;;;;68.80;57.70;;;;;;;10.18;100.00;97993.90;109141;1251;62679;-74
2024/03/23 07:00:50;;;;;;;65.20;56.30;;;;;;;10.25;100.00;97990.15;109550;1251;59769;-74
2024/03/23 07:03:17;;;;;;;66.10;56.80;;;;;;;10.37;100.00;97984.38;109481;1251;59931;-74
2024/03/23 07:05:44;;;;;;;64.10;53.50;;;;;;;10.48;100.00;97973.34;109494;1250;66832;-74
2024/03/23 07:08:10;;;;;;;65.20;53.60;;;;;;;10.58;100.00;97977.86;109518;1251;59717;-74
2024/03/23 07:10:39;;;;;;;60.40;52.20;;;;;;;10.64;100.00;97975.08;109524;1251;59885;-74
2024/03/23 07:13:05;;;;;;;62.40;50.90;;;;;;;10.68;100.00;97977.89;109489;1252;59792;-74
2024/03/23 07:15:33;;;;;;;62.10;52.00;;;;;;;10.74;100.00;97972.81;109521;1251;59831;-74
2024/03/23 07:17:59;;;;;;;59.70;52.30;;;;;;;10.78;100.00;97966.77;109561;1251;65664;-74
2024/03/23 07:20:26;;;;;;;60.60;52.70;;;;;;;10.82;100.00;97965.77;109507;1251;59862;-73
2024/03/23 07:22:52;;;;;;;60.80;52.00;;;;;;;10.90;100.00;97962.59;109494;1251;62798;-75
2024/03/23 07:25:18;;;;;;;58.50;51.80;;;;;;;10.98;100.00;97957.62;109497;1251;59804;-74
2024/03/23 07:27:45;;;;;;;58.50;49.10;;;;;;;11.02;100.00;97946.80;109518;1251;59737;-74
2024/03/23 07:30:11;;;;;;;54.90;48.10;;;;;;;11.09;100.00;97943.52;109494;1251;59806;-74
2024/03/23 07:32:37;;;;;;;51.80;45.60;;;;;;;11.19;100.00;97940.34;109516;1251;60242;-74
2024/03/23 07:35:04;;;;;;;51.70;43.80;;;;;;;11.30;100.00;97939.27;109519;1251;59859;-74
2024/03/23 07:37:31;;;;;;;46.90;41.90;;;;;;;11.44;100.00;97936.23;109521;1251;59811;-73
2024/03/23 07:39:58;;;;;;;48.10;41.80;;;;;;;11.59;100.00;97941.63;109356;1251;60083;-73
2024/03/23 07:42:26;;;;;;;50.20;44.40;;;;;;;11.83;100.00;97943.48;109524;1251;65651;-73
2024/03/23 07:44:54;;;;;;;42.70;37.90;;;;;;;12.06;100.00;97941.61;109478;1250;59740;-73
2024/03/23 07:47:21;;;;;;;41.70;37.20;;;;;;;12.24;100.00;97941.59;109550;1251;62921;-73
2024/03/23 07:49:47;;;;;;;40.60;36.40;;;;;;;12.47;100.00;97938.23;109258;1251;59883;-73
2024/03/23 07:52:15;;;;;;;41.30;35.50;;;;;;;12.77;100.00;97937.62;109518;1251;59776;-72
2024/03/23 07:54:41;;;;;;;38.40;34.10;;;;;;;12.99;100.00;97932.38;109543;1250;60228;-73
2024/03/23 07:57:08;;;;;;;39.80;34.10;;;;;;;13.08;100.00;97929.34;109565;1251;60543;-73
2024/03/23 07:59:34;;;;;;;39.50;35.10;;;;;;;13.15;100.00;97922.63;109525;1251;60621;-73
2024/03/23 08:02:00;;;;;;;39.20;34.80;;;;;;;13.28;100.00;97917.20;109479;1251;59855;-73
2024/03/23 08:04:27;;;;;;;40.00;34.80;;;;;;;13.30;100.00;97916.25;109551;1251;59808;-74
2024/03/23 08:06:54;;;;;;;36.90;32.70;;;;;;;13.25;100.00;97912.41;109541;1251;59862;-74
2024/03/23 08:09:20;;;;;;;38.60;30.90;;;;;;;13.25;100.00;97911.77;109523;1251;59779;-74
2024/03/23 08:11:47;;;;;;;35.40;31.60;;;;;;;13.23;100.00;97909.42;109545;1251;59821;-74
2024/03/23 08:14:13;;;;;;;37.20;31.40;;;;;;;13.23;100.00;97899.98;109125;1256;59820;-76
2024/03/23 08:16:40;;;;;;;34.10;30.50;;;;;;;13.27;100.00;97897.48;109157;1256;59865;-74
2024/03/23 08:19:08;;;;;;;38.20;32.20;;;;;;;13.36;100.00;97896.59;109035;1256;59870;-74
2024/03/23 08:21:35;;;;;;;38.10;31.90;;;;;;;13.44;100.00;97894.11;109136;1255;60155;-74
2024/03/23 08:24:01;;;;;;;32.30;28.80;;;;;;;13.51;100.00;97893.06;109042;1256;59807;-74
2024/03/23 08:26:27;;;;;;;34.60;29.60;;;;;;;13.59;100.00;97887.55;109053;1256;59847;-75
2024/03/23 08:28:53;;;;;;;30.60;27.20;;;;;;;13.69;100.00;97886.06;109101;1256;59844;-74
2024/03/23 08:31:20;;;;;;;31.40;27.00;;;;;;;13.84;100.00;97880.50;109097;1258;59891;-74
2024/03/23 08:33:47;;;;;;;30.30;27.10;;;;;;;13.99;100.00;97873.71;109090;1256;59869;-76
2024/03/23 08:36:16;;;;;;;30.00;26.50;;;;;;;14.09;100.00;97867.56;109124;1256;64043;-76
2024/03/23 08:38:43;;;;;;;32.90;29.00;;;;;;;14.17;100.00;97862.11;109074;1256;59860;-76
2024/03/23 08:41:10;;;;;;;30.30;26.60;;;;;;;14.29;100.00;97856.56;109022;1256;60120;-73
2024/03/23 08:43:39;;;;;;;31.20;28.00;;;;;;;14.35;100.00;97852.10;109130;1255;66872;-76
2024/03/23 08:46:10;;;;;;;30.40;27.10;;;;;;;14.43;100.00;97843.78;109421;1251;59749;-74
2024/03/23 08:48:43;;;;;;;29.20;25.40;;;;;;;14.58;100.00;97836.54;109497;1251;64124;-73
2024/03/23 08:51:11;;;;;;;27.90;24.80;;;;;;;14.76;100.00;97835.64;109534;1251;59798;-73
2024/03/23 08:53:38;;;;;;;28.60;25.50;;;;;;;14.88;100.00;97825.27;109550;1251;59665;-74
2024/03/23 08:56:08;;;;;;;28.30;25.10;;;;;;;15.06;100.00;97821.20;109347;1251;65655;-73
2024/03/23 08:58:36;;;;;;;29.30;25.20;;;;;;;15.26;100.00;97817.70;109547;1251;60169;-74
2024/03/23 09:01:13;;;;;;;27.30;24.00;;;;;;;15.47;100.00;97810.54;109498;1251;62871;-74
2024/03/23 09:03:39;;;;;;;27.50;23.70;;;;;;;15.72;100.00;97807.27;109544;1251;60127;-74
2024/03/23 09:06:11;;;;;;;26.80;23.60;;;;;;;15.97;100.00;97801.19;109595;1251;59661;-74
2024/03/23 09:08:40;;;;;;;21.90;18.60;;;;;;;16.17;100.00;97798.00;109494;1251;65681;-75
2024/03/23 09:11:08;;;;;;;17.90;15.00;;;;;;;16.36;100.00;97789.56;109495;1251;60098;-75
2024/03/23 09:13:36;;;;;;;16.40;14.70;;;;;;;16.46;100.00;97786.05;109512;1251;64118;-75
2024/03/23 09:16:03;;;;;;;17.60;14.20;;;;;;;16.56;100.00;97779.16;109515;1251;59764;-74
2024/03/23 09:18:33;;;;;;;16.60;13.30;;;;;;;16.61;97.35;97770.91;109601;1251;59707;-75
2024/03/23 09:21:00;;;;;;;19.20;14.40;;;;;;;16.62;96.89;97764.28;109543;1251;65832;-74
2024/03/23 09:23:26;;;;;;;17.70;14.70;;;;;;;16.68;98.10;97759.50;109580;1251;59740;-74
2024/03/23 09:25:53;;;;;;;16.30;14.50;;;;;;;16.75;98.37;97751.58;109543;1251;59844;-74
2024/03/23 09:28:19;;;;;;;15.50;13.10;;;;;;;16.83;96.45;97745.64;109518;1251;59765;-73
2024/03/23 09:30:46;;;;;;;15.90;12.30;;;;;;;16.90;94.87;97740.44;109541;1251;59813;-75
2024/03/23 09:33:13;;;;;;;13.60;10.20;;;;;;;16.99;92.48;97731.82;109525;1251;59896;-74
2024/03/23 09:35:40;;;;;;;9.50;7.90;;;;;;;17.15;90.33;97723.58;109528;1251;68947;-74
2024/03/23 09:38:09;;;;;;;8.10;5.70;;;;;;;17.21;85.56;97722.86;109545;1251;64157;-74
2024/03/23 09:40:43;;;;;;;6.80;5.20;;;;;;;17.21;82.25;97726.48;109351;1251;59956;-73
2024/03/23 09:43:09;;;;;;;6.60;4.80;;;;;;;17.17;75.32;97722.42;109534;1251;59854;-74
2024/03/23 09:45:39;;;;;;;6.20;4.70;;;;;;;17.08;74.06;97719.30;109505;1250;65601;-73
2024/03/23 09:48:09;;;;;;;;;;;;;;;17.03;75.77;97710.86;109570;1251;60375;-73
2024/03/23 09:50:40;;;;;;;;;;;;;;;17.04;76.81;97710.98;109370;1251;62481;-73
2024/03/23 09:53:07;;;;;;;6.20;4.80;;;;;;;17.09;73.87;97704.83;109464;1251;60375;-73
2024/03/23 09:55:37;;;;;;;7.60;5.10;;;;;;;17.18;73.42;97699.88;109541;1251;59694;-74
2024/03/23 09:58:08;;;;;;;5.50;4.90;;;;;;;17.23;70.46;97695.60;109544;1251;67337;-73
2024/03/23 10:00:35;;;;;;;5.90;5.10;;;;;;;17.33;70.84;97692.92;109527;1250;60993;-74
2024/03/23 10:03:02;;;;;;;6.10;5.10;;;;;;;17.48;70.98;97680.07;109421;1251;159350;-74
2024/03/23 10:05:31;;;;;;;6.00;4.30;;;;;;;17.63;69.94;97672.59;109535;1251;60072;-73
2024/03/23 10:07:57;;;;;;;5.50;4.90;;;;;;;17.73;68.54;97665.98;109567;1251;59820;-74
2024/03/23 10:10:27;;;;;;;6.60;5.00;;;;;;;17.82;68.22;97655.32;109569;1251;66815;-75
2024/03/23 10:12:53;;;;;;;6.00;5.40;;;;;;;17.91;68.29;97643.48;109209;1250;60108;-74
2024/03/23 10:15:23;;;;;;;5.80;4.80;;;;;;;17.95;64.19;97632.39;109554;1251;62609;-74
2024/03/23 10:17:49;;;;;;;10.20;6.40;;;;;;;17.84;60.10;97622.32;109586;1251;59773;-74
2024/03/23 10:20:22;;;;;;;5.30;4.70;;;;;;;17.82;60.27;97619.34;109565;1251;59726;-73
2024/03/23 10:22:50;;;;;;;4.90;4.50;;;;;;;17.92;63.31;97619.41;109598;1251;66916;-74
2024/03/23 10:25:17;;;;;;;5.10;4.60;;;;;;;18.05;63.53;97615.92;109547;1251;60162;-74
2024/03/23 10:27:43;;;;;;;5.20;4.60;;;;;;;18.16;61.74;97616.52;109506;1251;63470;-73
2024/03/23 10:30:17;;;;;;;5.00;4.10;;;;;;;18.26;60.62;97609.40;109545;1251;59875;-74
2024/03/23 10:32:43;;;;;;;5.00;4.50;;;;;;;18.35;60.94;97608.02;109581;1251;59920;-73
2024/03/23 10:35:20;;;;;;;4.40;4.00;;;;;;;18.41;62.50;97603.42;109500;1251;59856;-74
2024/03/23 10:37:47;;;;;;;4.80;4.20;;;;;;;18.52;62.13;97597.67;109579;1251;59823;-75
2024/03/23 10:40:13;;;;;;;6.00;5.20;;;;;;;18.64;61.64;97589.83;109489;1250;65143;-74
2024/03/23 10:42:40;;;;;;;6.70;4.30;;;;;;;18.71;60.99;97583.30;109579;1251;60079;-73
2024/03/23 10:45:07;;;;;;;6.00;5.30;;;;;;;18.75;61.90;97575.81;109583;1251;59987;-74
2024/03/23 10:47:37;;;;;;;6.80;5.50;;;;;;;18.80;60.64;97565.77;109551;1251;65685;-74
2024/03/23 10:50:05;;;;;;;5.10;4.60;;;;;;;18.83;60.57;97565.95;109553;1251;60078;-74
2024/03/23 10:52:35;;;;;;;7.50;5.40;;;;;;;18.84;58.42;97566.14;109616;1251;64054;-74
2024/03/23 10:55:05;;;;;;;6.70;4.90;;;;;;;18.84;58.54;97560.65;109581;1251;59781;-74
2024/03/23 10:57:37;;;;;;;;;;;;;;;18.84;59.16;97563.11;109569;1251;59845;-74
2024/03/23 11:00:04;;;;;;;5.80;5.20;;;;;;;18.86;59.74;97564.03;109322;1251;68067;-74
2024/03/23 11:02:31;;;;;;;6.30;4.60;;;;;;;18.96;61.13;97557.92;109394;1251;60738;-74
2024/03/23 11:04:57;;;;;;;5.70;4.60;;;;;;;19.10;60.94;97550.01;109560;1251;63870;-76
2024/03/23 11:07:23;;;;;;;6.00;4.80;;;;;;;19.15;60.69;97540.91;109567;1251;59926;-74
2024/03/23 11:10:00;;;;;;;4.80;4.10;;;;;;;19.14;57.67;97538.05;109557;1250;59861;-74